Indianapolis, Indiana
Current Conditions -  °F | °C
As of 4:54 PM on Tuesday 25 Nov 2014 (Local Time) from KIND Reporting Station
Overcast Overcast  
Wind Chill: 21°   Ceiling: 1700
Heat Index: 29°   Visibility: 10mi
Dew Point: 23°   Wind: 8mph
Humidity: 78%   Direction: 310°NW
Pressure: 30.16"   Gusts: NA
Location:  39.77°N, 86.15°W
Report Text: KIND 252154Z 31007KT 10SM OVC017 M02/M05 A3016 RMK AO2 SLP220 T10171050
Loading
Personal Weather Stations






























Interactive Weather Map New forecast layout! Learn more

10-Day Weather Forecast

Advertisements
Track Severe Weather on mobile